9L2

Edwards Af Aux North Base Airport

Edwards, California, USA
METAR K9L2 162158Z AUTO 00000KT 9SM FEW029 BKN037 15/08 A3013 RMK AO2 SLP201 T01490079
Observed Flight Rules
Jan-16 @ 21:58 UTC (33 minutes ago) Visual Flight Rules
Visibility Clouds
9 miles
  • Few at 2,900' AGL
  • Broken at 3,700' AGL
Temperatures Readings
Current 15°C / 59°F
Dewpoint 8°C / 46°F
Humidity 63%
Altimeter 30.13" Hg
Pressure 1020.1 hPa
Elevation 701
METAR K9L2 162158Z AUTO 00000KT 9SM FEW029 BKN037 15/08 A3013 RMK AO2 SLP201 T01490079
Observed Flight Rules
Jan-16 @ 21:58 UTC
(33 minutes ago)
VFR
Clouds
  • Few at 2,900' AGL
  • Broken at 3,700' AGL
Temperature Dewpoint
15°C / 59°F 8°C / 46°F
Humidity Altimeter Pressure
63% 30.13" Hg 1020.1 hPa